Time;durP1;ratioP1;P1;durP2;ratioP2;P2;SDS_P1;SDS_P2;PMS_P1;PMS_P2;Temp;Humidity;BMP_temperature;BMP_pressure;BME280_temperature;BME280_humidity;BME280_pressure;Samples;Min_cycle;Max_cycle;Signal;HPM_P1;HPM_P2
2022/08/10 00:00:22;;;;;;;424.55;397.42;;;;;;;22.92;70.31;101151.41;5019956;28;102058;-71
2022/08/10 00:02:50;;;;;;;440.35;412.33;;;;;;;22.91;70.27;101158.09;5018535;28;102061;-72
2022/08/10 00:05:18;;;;;;;453.50;423.73;;;;;;;22.90;70.59;101157.28;5021162;28;102196;-73
2022/08/10 00:07:45;;;;;;;459.67;429.88;;;;;;;22.91;70.56;101158.09;5016862;28;104285;-72
2022/08/10 00:10:13;;;;;;;461.00;430.75;;;;;;;22.89;70.27;101155.66;5022048;28;102411;-71
2022/08/10 00:12:41;;;;;;;420.35;393.17;;;;;;;22.90;70.35;101153.69;5018077;28;102051;-72
2022/08/10 00:15:10;;;;;;;420.80;393.35;;;;;;;22.91;70.35;101152.53;5019502;28;102156;-71
2022/08/10 00:17:37;;;;;;;445.77;414.77;;;;;;;22.89;70.24;101160.38;5014797;28;103958;-71
2022/08/10 00:20:05;;;;;;;420.20;391.95;;;;;;;22.89;70.15;101154.84;5007702;28;102553;-72
2022/08/10 00:22:33;;;;;;;311.80;293.33;;;;;;;22.91;70.46;101160.88;5018546;28;102155;-74
2022/08/10 00:25:00;;;;;;;320.25;301.42;;;;;;;22.91;70.24;101158.09;5015918;28;104131;-72
2022/08/10 00:27:27;;;;;;;360.80;339.13;;;;;;;22.89;70.30;101152.88;5010692;28;104148;-73
2022/08/10 00:29:54;;;;;;;374.25;352.33;;;;;;;22.88;70.44;101150.44;5016720;28;102274;-72
2022/08/10 00:32:21;;;;;;;385.00;362.55;;;;;;;22.88;70.29;101153.22;5012651;28;102286;-73
2022/08/10 00:34:48;;;;;;;367.65;344.52;;;;;;;22.88;70.25;101153.22;4999180;28;102603;-72
2022/08/10 00:37:16;;;;;;;544.17;509.20;;;;;;;22.88;70.32;101147.69;5002770;28;104246;-73
2022/08/10 00:39:44;;;;;;;673.63;628.93;;;;;;;22.87;70.30;101151.63;5017868;28;102549;-73
2022/08/10 00:42:12;;;;;;;812.78;752.70;;;;;;;22.87;70.23;101152.44;5015852;28;102258;-73
2022/08/10 00:44:40;;;;;;;876.42;808.67;;;;;;;22.87;70.27;101146.88;5018278;28;102135;-72
2022/08/10 00:47:08;;;;;;;914.80;845.77;;;;;;;22.87;70.23;101151.63;5016622;28;104021;-71
2022/08/10 00:49:35;;;;;;;903.63;832.88;;;;;;;22.86;70.15;101144.44;5001903;28;102642;-62
2022/08/10 00:52:02;;;;;;;872.05;803.97;;;;;;;22.86;70.08;101152.75;5005736;28;102896;-73
2022/08/10 00:54:30;;;;;;;904.25;834.15;;;;;;;22.84;70.26;101147.56;5019176;28;102263;-72
2022/08/10 00:56:58;;;;;;;821.53;759.60;;;;;;;22.85;70.07;101148.38;5017488;28;104062;-71
2022/08/10 00:59:24;;;;;;;849.17;783.72;;;;;;;22.85;70.24;101149.16;5017316;28;102183;-72
2022/08/10 01:01:51;;;;;;;800.83;741.63;;;;;;;22.84;70.12;101155.06;5017244;28;102479;-72
2022/08/10 01:04:18;;;;;;;766.65;710.30;;;;;;;22.84;70.06;101152.31;5011987;27;102404;-72
2022/08/10 01:06:52;;;;;;;715.88;663.95;;;;;;;22.84;70.08;101152.31;5001124;28;103830;-71
2022/08/10 01:09:28;;;;;;;699.53;650.45;;;;;;;22.84;69.90;101152.31;5018054;28;102393;-73
2022/08/10 01:12:03;;;;;;;648.63;602.30;;;;;;;22.84;70.06;101152.31;5008790;28;102405;-72
2022/08/10 01:14:36;;;;;;;624.75;582.03;;;;;;;22.83;70.11;101150.66;5002531;28;102232;-73
2022/08/10 01:17:09;;;;;;;593.15;553.13;;;;;;;22.82;69.82;101147.06;5006052;28;103771;-73
2022/08/10 01:19:53;;;;;;;579.25;541.08;;;;;;;22.83;70.10;101150.66;5015151;28;102104;-73
2022/08/10 01:22:35;;;;;;;554.45;517.70;;;;;;;22.83;69.94;101150.66;5004628;28;102684;-71
2022/08/10 01:25:30;;;;;;;569.88;532.35;;;;;;;22.82;69.77;101151.81;4998625;28;102206;-72
2022/08/10 01:28:07;;;;;;;513.45;480.20;;;;;;;22.82;69.97;101146.28;5013287;28;103982;-73
2022/08/10 01:30:38;;;;;;;471.23;440.63;;;;;;;22.82;70.12;101140.72;5033950;28;102389;-72
2022/08/10 01:33:11;;;;;;;489.52;458.30;;;;;;;22.81;69.88;101141.88;5029954;28;102037;-69
2022/08/10 01:35:44;;;;;;;474.30;444.23;;;;;;;22.81;70.18;101142.69;5016848;28;102242;-72
2022/08/10 01:38:16;;;;;;;495.52;463.10;;;;;;;22.81;70.00;101141.88;5016074;28;104001;-71
2022/08/10 01:40:47;;;;;;;438.65;410.52;;;;;;;22.81;70.29;101141.88;5016171;28;101991;-72
2022/08/10 01:43:16;;;;;;;410.33;384.25;;;;;;;22.81;70.18;101134.38;5015345;28;102010;-72
2022/08/10 01:45:45;;;;;;;;;;;;;;;22.80;69.67;101146.63;5016824;28;102110;-74
2022/08/10 01:48:30;;;;;;;381.90;358.33;;;;;;;22.81;70.02;101139.09;5000893;28;103858;-72
2022/08/10 01:51:11;;;;;;;359.63;337.35;;;;;;;22.79;69.86;101140.28;5017706;28;102364;-73
2022/08/10 01:53:42;;;;;;;371.27;348.45;;;;;;;22.79;69.98;101134.72;4996546;28;101832;-72
2022/08/10 01:56:12;;;;;;;361.85;339.33;;;;;;;22.78;69.94;101138.63;4997369;28;102302;-73
2022/08/10 01:58:39;;;;;;;357.95;336.48;;;;;;;22.78;70.31;101133.09;4998895;28;103895;-71
2022/08/10 02:01:12;;;;;;;387.53;363.70;;;;;;;22.79;69.83;101131.94;4997422;28;101998;-73
2022/08/10 02:03:41;;;;;;;360.88;339.50;;;;;;;22.78;69.71;101119.22;5010902;28;102235;-72
2022/08/10 02:06:09;;;;;;;;;;;;;;;22.79;69.86;101128.34;5017572;28;102215;-72
2022/08/10 02:08:36;;;;;;;387.58;363.80;;;;;;;22.78;69.78;101124.75;5015619;28;103913;-73
2022/08/10 02:11:05;;;;;;;401.10;376.83;;;;;;;22.80;70.37;101129.97;5016336;28;104305;-72
2022/08/10 02:13:33;;;;;;;377.83;355.27;;;;;;;22.79;69.93;101123.63;5016290;28;101968;-72
2022/08/10 02:16:00;;;;;;;369.97;347.77;;;;;;;22.79;70.06;101128.34;5017482;28;102118;-72
2022/08/10 02:18:29;;;;;;;361.93;339.83;;;;;;;22.79;69.97;101133.88;5014652;28;104020;-72
2022/08/10 02:20:58;;;;;;;427.95;400.35;;;;;;;22.78;70.08;101133.09;4997007;28;102313;-72
2022/08/10 02:23:28;;;;;;;368.38;345.95;;;;;;;22.78;70.08;101126.72;4996836;28;102023;-72
2022/08/10 02:25:58;;;;;;;363.88;341.92;;;;;;;22.77;70.22;101125.91;5014308;28;102197;-72
2022/08/10 02:28:28;;;;;;;330.70;310.95;;;;;;;22.77;70.04;101125.91;5012010;28;104005;-72
2022/08/10 02:30:58;;;;;;;334.60;315.08;;;;;;;22.77;69.94;101125.13;5015328;28;102387;-72
2022/08/10 02:33:26;;;;;;;308.08;290.27;;;;;;;22.76;70.09;101129.84;5006477;28;102326;-72
2022/08/10 02:35:56;;;;;;;315.85;297.50;;;;;;;22.77;69.74;101131.47;5006423;28;102591;-73
2022/08/10 02:38:31;;;;;;;297.88;280.65;;;;;;;22.77;69.98;101137.03;5013514;28;107976;-72
2022/08/10 02:41:07;;;;;;;298.50;281.10;;;;;;;22.76;69.90;101135.41;5015750;28;102537;-73
2022/08/10 02:43:41;;;;;;;299.92;282.65;;;;;;;22.76;70.04;101135.41;5015196;28;102251;-72
2022/08/10 02:46:12;;;;;;;321.08;302.58;;;;;;;22.76;69.89;101132.63;5017038;28;102453;-73
2022/08/10 02:48:43;;;;;;;309.58;291.55;;;;;;;22.77;70.11;101131.47;5014898;28;103952;-72
2022/08/10 02:51:15;;;;;;;304.90;287.33;;;;;;;22.78;69.98;101140.59;5016619;28;101949;-74
2022/08/10 02:53:46;;;;;;;328.48;309.13;;;;;;;22.76;70.27;101135.41;5019568;27;102503;-72
2022/08/10 02:56:19;;;;;;;328.90;309.67;;;;;;;22.77;70.07;101136.22;5010755;28;102515;-73
2022/08/10 02:58:53;;;;;;;307.45;289.60;;;;;;;22.75;70.10;101128.22;5014352;28;103885;-72
2022/08/10 03:01:24;;;;;;;302.95;285.63;;;;;;;22.76;70.03;101138.19;5016316;28;102457;-72
2022/08/10 03:03:57;;;;;;;316.17;297.92;;;;;;;22.76;69.93;101135.41;5015051;28;102320;-73
2022/08/10 03:06:32;;;;;;;310.80;292.70;;;;;;;22.76;69.92;101137.38;5016886;28;102010;-72
2022/08/10 03:09:02;;;;;;;303.55;286.15;;;;;;;22.75;69.86;101142.09;5014172;28;103940;-72
2022/08/10 03:11:30;;;;;;;296.92;279.95;;;;;;;22.74;70.09;101134.94;5006469;28;102096;-72
2022/08/10 03:13:59;;;;;;;307.02;289.73;;;;;;;22.75;70.36;101139.31;5014876;28;102302;-73
2022/08/10 03:16:26;;;;;;;279.85;264.20;;;;;;;22.76;69.73;101137.38;5017275;28;102275;-73
2022/08/10 03:18:55;;;;;;;276.15;260.77;;;;;;;22.74;69.92;101128.56;5015442;28;103939;-73
2022/08/10 03:21:21;;;;;;;;;;;;;;;22.74;69.85;101128.56;5016161;28;102013;-72
2022/08/10 03:23:52;;;;;;;278.10;262.65;;;;;;;22.74;69.92;101132.16;5015679;28;102319;-73
2022/08/10 03:26:18;;;;;;;288.65;272.45;;;;;;;22.75;70.20;101121.84;5015611;28;102291;-72
2022/08/10 03:28:47;;;;;;;282.88;266.95;;;;;;;22.73;70.23;101125.00;5013216;28;103833;-71
2022/08/10 03:31:14;;;;;;;279.33;263.35;;;;;;;22.73;69.67;101127.75;5015344;28;102371;-73
2022/08/10 03:33:43;;;;;;;283.02;266.88;;;;;;;22.73;69.72;101124.19;5014775;28;102440;-72
2022/08/10 03:36:10;;;;;;;247.65;233.95;;;;;;;22.72;69.69;101128.94;5000705;28;102176;-73
2022/08/10 03:38:39;;;;;;;272.10;257.10;;;;;;;22.73;69.68;101125.00;5003050;28;104062;-72
2022/08/10 03:41:08;;;;;;;;;;;;;;;22.73;69.70;101119.44;5009535;28;101998;-72
2022/08/10 03:43:36;;;;;;;240.35;227.05;;;;;;;22.72;69.98;101126.16;5007971;28;102393;-68
2022/08/10 03:46:06;;;;;;;254.82;240.77;;;;;;;22.73;69.75;101121.41;5020566;28;102103;-71
2022/08/10 03:48:36;;;;;;;253.50;239.60;;;;;;;22.73;69.83;101119.44;5017731;28;103966;-72
2022/08/10 03:51:04;;;;;;;262.30;247.85;;;;;;;22.74;69.70;101125.78;5018428;28;102173;-72
2022/08/10 03:53:31;;;;;;;628.93;584.70;;;;;;;22.72;69.86;101128.94;5023738;28;102478;-72
2022/08/10 03:55:58;;;;;;;509.15;475.05;;;;;;;22.72;69.62;101120.59;5030977;28;102857;-72
2022/08/10 03:58:26;;;;;;;520.35;485.83;;;;;;;22.72;69.64;101123.38;5013010;28;103912;-72
2022/08/10 04:00:54;;;;;;;464.30;433.27;;;;;;;22.73;69.87;101119.44;4998778;28;102524;-72
2022/08/10 04:03:21;;;;;;;465.20;434.33;;;;;;;22.73;69.53;101119.44;5008400;28;101997;-72
2022/08/10 04:05:47;;;;;;;463.00;432.63;;;;;;;22.74;69.72;101112.72;5019186;28;102320;-73
2022/08/10 04:08:14;;;;;;;498.83;466.05;;;;;;;22.73;69.81;101113.91;5007006;28;104018;-73
2022/08/10 04:10:41;;;;;;;461.05;431.13;;;;;;;22.74;69.61;101109.97;5018252;28;102160;-72
2022/08/10 04:13:07;;;;;;;489.52;458.17;;;;;;;22.75;69.50;101116.31;5016983;28;102445;-72
2022/08/10 04:15:35;;;;;;;480.73;449.83;;;;;;;22.75;69.66;101111.56;5019429;28;102531;-72
2022/08/10 04:18:02;;;;;;;481.37;450.37;;;;;;;22.75;69.48;101116.31;5017377;28;103804;-72
2022/08/10 04:20:35;;;;;;;489.60;457.77;;;;;;;22.75;69.51;101110.75;5018104;28;102264;-72
2022/08/10 04:23:05;;;;;;;490.00;458.00;;;;;;;22.76;69.77;101109.63;5016707;28;102499;-72
2022/08/10 04:25:34;;;;;;;498.58;465.77;;;;;;;22.74;69.63;101109.97;5018921;28;102725;-72
2022/08/10 04:28:02;;;;;;;481.85;449.98;;;;;;;22.75;69.82;101105.22;5017270;28;103891;-72
2022/08/10 04:30:30;;;;;;;802.33;744.37;;;;;;;22.74;69.63;101112.72;5013095;28;104513;-72
2022/08/10 04:33:01;;;;;;;457.85;428.52;;;;;;;22.74;69.50;101115.50;5013398;28;102329;-71
2022/08/10 04:35:28;;;;;;;444.67;415.67;;;;;;;22.75;69.78;101110.75;5017917;28;102308;-72
2022/08/10 04:37:55;;;;;;;435.75;407.52;;;;;;;22.75;69.72;101102.44;5016502;28;103744;-73
2022/08/10 04:40:22;;;;;;;454.77;425.67;;;;;;;22.76;69.68;101106.84;5017948;28;102403;-73
2022/08/10 04:42:49;;;;;;;428.58;401.38;;;;;;;22.74;69.83;101104.41;5015736;28;102207;-72
2022/08/10 04:45:16;;;;;;;405.48;379.48;;;;;;;22.74;69.67;101104.41;5019082;28;102406;-71
2022/08/10 04:47:43;;;;;;;412.27;386.23;;;;;;;22.76;69.61;101095.75;5017304;28;104007;-72
2022/08/10 04:50:11;;;;;;;443.35;415.23;;;;;;;22.74;69.78;101104.41;5017240;28;101988;-72
2022/08/10 04:52:37;;;;;;;439.30;411.70;;;;;;;22.75;69.91;101100.47;5016817;27;102265;-72
2022/08/10 04:55:04;;;;;;;422.45;396.00;;;;;;;22.75;69.70;101094.91;5001002;28;102166;-71
2022/08/10 04:57:31;;;;;;;414.17;388.65;;;;;;;22.75;69.70;101088.56;4999092;28;104170;-72
2022/08/10 04:59:57;;;;;;;425.35;398.83;;;;;;;22.74;69.63;101104.41;5018012;28;102333;-71
2022/08/10 05:02:24;;;;;;;430.90;403.95;;;;;;;22.75;69.60;101102.44;5016778;28;102122;-72
2022/08/10 05:04:50;;;;;;;432.08;405.08;;;;;;;22.75;69.58;101088.56;5017727;28;102218;-72
2022/08/10 05:07:18;;;;;;;427.70;401.08;;;;;;;22.75;69.56;101088.56;5015883;28;103859;-71
2022/08/10 05:09:47;;;;;;;442.63;415.13;;;;;;;22.75;69.69;101094.91;5017651;28;103111;-73
2022/08/10 05:12:13;;;;;;;412.08;386.23;;;;;;;22.75;69.58;101086.59;5016526;28;102376;-72
2022/08/10 05:14:40;;;;;;;450.40;422.13;;;;;;;22.74;69.29;101101.63;5017823;28;102093;-72
2022/08/10 05:17:06;;;;;;;454.42;425.75;;;;;;;22.75;69.48;101100.47;5006186;28;104140;-71
2022/08/10 05:19:33;;;;;;;454.50;426.13;;;;;;;22.74;69.52;101090.53;5015892;28;102110;-71
2022/08/10 05:21:59;;;;;;;434.27;406.88;;;;;;;22.74;69.39;101093.31;5017658;28;102096;-72
2022/08/10 05:24:27;;;;;;;421.95;395.70;;;;;;;22.75;69.54;101092.16;5017597;28;102258;-71
2022/08/10 05:26:54;;;;;;;413.30;387.00;;;;;;;22.75;69.69;101089.38;5015192;28;104042;-72
2022/08/10 05:29:21;;;;;;;426.33;399.48;;;;;;;22.75;69.42;101092.16;5017676;28;102252;-73
2022/08/10 05:31:48;;;;;;;398.27;373.55;;;;;;;22.74;69.60;101085.00;5015378;28;102499;-71
2022/08/10 05:34:15;;;;;;;398.20;373.08;;;;;;;22.75;69.38;101089.38;5017239;28;102467;-73
2022/08/10 05:36:42;;;;;;;386.30;361.73;;;;;;;22.75;69.23;101081.03;5015356;28;104065;-72
2022/08/10 05:39:10;;;;;;;397.23;371.95;;;;;;;22.76;69.40;101085.47;5017229;28;102252;-73
2022/08/10 05:41:38;;;;;;;409.90;383.55;;;;;;;22.78;69.23;101087.88;5014578;28;104487;-72
2022/08/10 05:44:05;;;;;;;416.20;389.27;;;;;;;22.78;69.38;101085.91;5016185;28;102188;-72
2022/08/10 05:46:32;;;;;;;417.48;390.52;;;;;;;22.79;68.16;101082.00;5015180;28;103945;-72
2022/08/10 05:48:58;;;;;;;412.02;385.35;;;;;;;22.79;69.84;101079.22;5012807;28;102745;-73
2022/08/10 05:51:26;;;;;;;427.60;399.98;;;;;;;22.81;69.52;101078.88;5016547;28;102388;-72
2022/08/10 05:53:53;;;;;;;419.88;392.75;;;;;;;22.81;69.72;101080.84;5007247;28;102260;-72
2022/08/10 05:56:19;;;;;;;467.33;437.00;;;;;;;22.82;70.02;101082.44;5011672;28;103928;-71
2022/08/10 05:58:47;;;;;;;443.13;413.67;;;;;;;22.84;69.62;101080.97;5016531;28;102280;-73
2022/08/10 06:01:17;;;;;;;477.30;445.57;;;;;;;22.83;69.48;101084.06;5015913;28;102331;-72
2022/08/10 06:03:49;;;;;;;452.77;422.85;;;;;;;22.83;69.87;101081.28;5016564;28;104276;-73
2022/08/10 06:06:18;;;;;;;473.40;442.55;;;;;;;22.83;69.77;101084.91;5016184;28;108097;-71
2022/08/10 06:08:46;;;;;;;475.63;444.40;;;;;;;22.82;69.39;101074.13;5005552;28;102756;-73
2022/08/10 06:11:18;;;;;;;469.90;438.80;;;;;;;22.85;68.29;101076.22;5016796;28;102146;-72
2022/08/10 06:16:54;;;;;;;503.75;470.40;;;;;;;22.89;68.79;101082.69;4942191;28;104072;-73
2022/08/10 06:19:22;;;;;;;484.55;452.75;;;;;;;22.89;68.26;101079.91;4954574;28;102557;-72
2022/08/10 06:21:49;;;;;;;465.73;435.65;;;;;;;22.90;69.44;101084.28;4983874;28;102121;-72
2022/08/10 06:24:16;;;;;;;481.90;450.77;;;;;;;22.92;69.10;101082.03;5017264;28;102471;-72
2022/08/10 06:26:43;;;;;;;476.02;445.13;;;;;;;22.90;68.02;101073.19;5014819;28;104100;-74
2022/08/10 06:29:13;;;;;;;456.25;426.70;;;;;;;22.90;70.07;101075.97;5007773;28;102788;-72
2022/08/10 06:31:42;;;;;;;458.42;428.58;;;;;;;22.93;69.03;101078.09;5008351;28;102400;-72
2022/08/10 06:34:11;;;;;;;442.67;414.30;;;;;;;22.91;68.18;101080.38;5006564;28;102706;-73
2022/08/10 06:36:42;;;;;;;463.80;434.33;;;;;;;22.92;67.53;101076.47;5007338;28;104949;-73
2022/08/10 06:39:09;;;;;;;452.15;423.02;;;;;;;22.94;69.22;101074.19;5015055;28;102314;-72
2022/08/10 06:41:45;;;;;;;466.35;436.30;;;;;;;22.93;69.84;101078.09;5010962;28;102214;-73
2022/08/10 06:44:18;;;;;;;438.50;410.77;;;;;;;22.93;69.61;101080.88;5015221;28;103741;-71
2022/08/10 06:46:49;;;;;;;445.60;417.35;;;;;;;22.92;67.29;101071.72;5014822;28;104070;-72
2022/08/10 06:49:20;;;;;;;457.08;427.95;;;;;;;22.94;67.31;101063.88;5010111;28;102881;-70
2022/08/10 06:51:51;;;;;;;469.65;439.67;;;;;;;22.93;69.35;101067.78;5008453;28;102372;-72
2022/08/10 06:54:22;;;;;;;453.40;424.38;;;;;;;22.94;68.86;101065.84;5014717;28;102142;-72
2022/08/10 06:56:51;;;;;;;439.13;411.38;;;;;;;22.94;67.73;101068.63;5014317;28;104077;-72
2022/08/10 06:59:25;;;;;;;464.25;434.52;;;;;;;22.94;69.18;101057.53;5003788;28;102416;-71
2022/08/10 07:01:59;;;;;;;476.77;446.23;;;;;;;22.93;67.21;101058.66;5007752;28;102023;-72
2022/08/10 07:04:29;;;;;;;457.23;428.60;;;;;;;22.92;67.36;101060.63;5010661;28;102477;-71
2022/08/10 07:06:58;;;;;;;736.05;684.95;;;;;;;22.94;67.17;101065.84;5015274;28;104060;-71
2022/08/10 07:09:26;;;;;;;520.28;487.15;;;;;;;22.93;67.48;101061.44;5014006;28;102592;-73
2022/08/10 07:11:56;;;;;;;340.95;318.67;;;;;;;22.95;67.63;101065.50;5012539;27;102357;-72
2022/08/10 07:14:26;;;;;;;407.23;380.75;;;;;;;22.94;67.72;101058.34;4998276;28;102360;-71
2022/08/10 07:16:55;;;;;;;400.60;375.00;;;;;;;22.94;67.86;101058.34;5007003;28;103938;-72
2022/08/10 07:19:24;;;;;;;382.23;357.50;;;;;;;22.94;67.22;101060.31;5018884;28;102361;-72
2022/08/10 07:21:52;;;;;;;393.70;368.10;;;;;;;22.96;67.41;101049.66;5017015;28;102153;-73
2022/08/10 07:24:21;;;;;;;440.05;411.20;;;;;;;22.97;67.63;101054.03;5015571;28;102251;-71
2022/08/10 07:26:52;;;;;;;448.38;418.85;;;;;;;22.98;67.50;101053.72;5002735;28;103857;-72
2022/08/10 07:29:19;;;;;;;410.23;382.77;;;;;;;23.01;69.38;101047.47;5010415;28;102080;-73
2022/08/10 07:31:48;;;;;;;400.42;374.48;;;;;;;23.01;68.77;101046.66;5019173;28;102482;-72
2022/08/10 07:34:19;;;;;;;412.83;386.10;;;;;;;23.04;69.38;101048.72;5019585;28;102161;-74
2022/08/10 07:36:46;;;;;;;442.70;414.17;;;;;;;23.06;68.88;101049.19;5017580;28;105052;-70
2022/08/10 07:39:14;;;;;;;477.88;446.40;;;;;;;23.09;68.42;101050.47;5014407;28;102570;-73
2022/08/10 07:41:43;;;;;;;470.27;440.25;;;;;;;23.10;69.11;101039.00;5012288;28;102148;-72
2022/08/10 07:44:11;;;;;;;437.67;410.30;;;;;;;23.10;68.33;101036.22;5013576;28;102561;-72
2022/08/10 07:46:43;;;;;;;445.17;416.97;;;;;;;23.09;68.67;101031.84;5017583;28;104036;-72
2022/08/10 07:49:17;;;;;;;445.45;417.17;;;;;;;23.10;68.84;101039.00;5012527;28;102175;-73
2022/08/10 07:51:44;;;;;;;457.90;428.65;;;;;;;23.09;69.16;101026.28;5016000;28;102518;-74
2022/08/10 07:54:14;;;;;;;469.85;440.10;;;;;;;23.09;68.74;101033.81;5009730;28;102603;-72
2022/08/10 07:56:45;;;;;;;465.02;435.38;;;;;;;23.09;68.81;101026.28;5005808;28;103927;-73
2022/08/10 07:59:16;;;;;;;460.58;431.30;;;;;;;23.10;69.02;101027.09;5001594;28;102287;-71
2022/08/10 08:01:49;;;;;;;440.50;412.17;;;;;;;23.11;69.38;101023.16;5017828;28;102255;-73
2022/08/10 08:04:19;;;;;;;520.92;487.05;;;;;;;23.13;69.09;101016.09;5018296;28;102106;-71
2022/08/10 08:06:47;;;;;;;502.30;469.60;;;;;;;23.13;69.29;101021.66;4998450;28;103819;-72
2022/08/10 08:09:14;;;;;;;508.40;475.57;;;;;;;23.16;69.45;101031.25;5008038;28;102182;-72
2022/08/10 08:11:42;;;;;;;495.15;462.88;;;;;;;23.17;69.41;101017.00;5016587;28;102308;-73
2022/08/10 08:14:10;;;;;;;502.73;469.95;;;;;;;23.16;69.15;101007.06;5012084;28;102804;-72
2022/08/10 08:16:41;;;;;;;486.65;455.38;;;;;;;23.17;69.13;101016.22;5003563;28;103942;-72
2022/08/10 08:19:08;;;;;;;478.70;448.20;;;;;;;23.19;69.01;101020.25;5005497;28;102429;-72
2022/08/10 08:21:38;;;;;;;506.85;474.63;;;;;;;23.19;69.28;101003.59;5016723;28;102349;-71
2022/08/10 08:24:07;;;;;;;258.65;243.80;;;;;;;23.19;69.26;101006.38;5006772;28;102207;-73
2022/08/10 08:26:35;;;;;;;;;;;;;;;23.20;69.12;100999.66;5015079;28;104008;-73
2022/08/10 08:29:03;;;;;;;316.00;296.40;;;;;;;23.23;69.25;101004.50;5016434;28;102876;-72
2022/08/10 08:31:29;;;;;;;254.70;239.57;;;;;;;23.23;69.20;100996.19;5015619;28;102231;-72
2022/08/10 08:33:57;;;;;;;280.60;264.02;;;;;;;23.23;69.31;100987.06;5015289;28;102548;-73
2022/08/10 08:36:25;;;;;;;302.55;284.02;;;;;;;23.23;69.12;100992.59;5009111;28;103898;-71
2022/08/10 08:38:54;;;;;;;434.35;405.65;;;;;;;23.23;69.11;100992.59;5010638;28;102562;-73
2022/08/10 08:41:52;;;;;;;481.48;449.60;;;;;;;23.24;69.16;100992.25;5003961;28;101918;-72
2022/08/10 08:44:29;;;;;;;722.92;670.88;;;;;;;23.24;69.28;100989.47;5007985;28;103790;-73
2022/08/10 08:47:08;;;;;;;918.97;845.47;;;;;;;23.24;68.94;100988.66;5016845;28;103818;-73
2022/08/10 08:49:51;;;;;;;427.05;400.10;;;;;;;23.24;69.59;100995.03;5013358;28;102497;-73
2022/08/10 08:52:34;;;;;;;313.95;295.05;;;;;;;23.27;69.07;100990.75;5014083;28;102258;-73
2022/08/10 08:55:27;;;;;;;499.05;467.05;;;;;;;23.25;69.41;100981.94;5012423;28;102251;-72
2022/08/10 08:58:04;;;;;;;681.08;633.03;;;;;;;23.29;69.25;100984.81;4997023;28;108262;-72
2022/08/10 09:00:41;;;;;;;923.17;850.25;;;;;;;23.31;69.23;100991.66;4998780;28;102212;-73
2022/08/10 09:03:29;;;;;;;916.05;842.53;;;;;;;23.29;69.44;100984.81;5014181;28;102170;-73
2022/08/10 09:06:06;;;;;;;791.28;734.33;;;;;;;23.30;68.98;100980.88;5016782;28;103157;-73
2022/08/10 09:09:08;;;;;;;865.63;800.20;;;;;;;23.29;69.08;100982.03;5008948;28;104289;-72
2022/08/10 09:11:50;;;;;;;909.97;838.60;;;;;;;23.27;69.11;100980.44;5006821;28;102025;-73
2022/08/10 09:14:24;;;;;;;969.78;891.65;;;;;;;23.31;69.12;100972.22;4997359;28;102327;-72
2022/08/10 09:17:01;;;;;;;623.38;579.67;;;;;;;23.31;69.17;100969.44;5006372;28;101999;-73
2022/08/10 09:19:36;;;;;;;565.65;525.22;;;;;;;23.32;69.06;100970.25;5015774;28;103877;-73
2022/08/10 09:22:12;;;;;;;577.50;536.22;;;;;;;23.33;69.25;100958.78;5007627;28;104658;-73
2022/08/10 09:24:44;;;;;;;553.03;513.08;;;;;;;23.31;69.24;100954.75;5009487;28;102243;-73
2022/08/10 09:27:19;;;;;;;567.35;527.03;;;;;;;23.30;69.08;100961.44;5014305;28;102185;-72
2022/08/10 09:29:53;;;;;;;558.40;518.42;;;;;;;23.31;69.54;100950.00;5008960;28;104009;-71
2022/08/10 09:32:31;;;;;;;559.50;519.45;;;;;;;23.34;69.20;100937.38;5016796;28;102334;-73
2022/08/10 09:35:11;;;;;;;563.70;523.45;;;;;;;23.32;69.33;100943.28;4997138;28;102224;-73
2022/08/10 09:37:45;;;;;;;552.20;512.60;;;;;;;23.32;69.14;100945.25;4997430;28;102026;-72
2022/08/10 09:40:18;;;;;;;571.85;531.08;;;;;;;23.30;69.45;100948.38;5004368;28;104175;-72
2022/08/10 09:42:55;;;;;;;562.22;522.22;;;;;;;23.30;69.37;100942.84;5000117;28;102354;-72
2022/08/10 09:45:30;;;;;;;564.38;524.10;;;;;;;23.29;69.25;100940.41;5017097;28;102557;-74
2022/08/10 09:48:05;;;;;;;563.35;522.80;;;;;;;23.30;69.09;100933.66;5013621;28;102552;-74
2022/08/10 09:50:36;;;;;;;596.28;553.85;;;;;;;23.31;69.16;100940.88;5010996;28;104019;-73
2022/08/10 09:53:09;;;;;;;592.30;550.47;;;;;;;23.32;69.15;100928.59;5015634;28;102267;-73
2022/08/10 09:55:45;;;;;;;602.10;559.78;;;;;;;23.32;69.42;100934.94;5003126;28;102087;-73
2022/08/10 09:58:27;;;;;;;602.75;560.58;;;;;;;23.31;69.04;100926.97;5003541;28;102202;-73
2022/08/10 10:01:09;;;;;;;598.00;555.60;;;;;;;23.29;69.39;100926.50;5006234;28;104151;-72
2022/08/10 10:03:45;;;;;;;579.70;538.28;;;;;;;23.31;69.21;100926.97;5014669;28;102221;-72
2022/08/10 10:06:17;;;;;;;580.45;539.17;;;;;;;23.32;69.15;100928.59;5013701;28;102110;-73
2022/08/10 10:08:51;;;;;;;570.45;529.80;;;;;;;23.27;69.47;100930.47;5008708;28;102057;-73
2022/08/10 10:11:23;;;;;;;571.22;530.53;;;;;;;23.27;69.50;100922.13;4999340;28;103881;-73
2022/08/10 10:14:05;;;;;;;587.47;545.80;;;;;;;23.30;69.47;100917.84;5001880;28;102432;-72
2022/08/10 10:16:42;;;;;;;597.15;554.72;;;;;;;23.31;69.23;100926.97;5016175;28;102433;-72
2022/08/10 10:19:23;;;;;;;609.22;566.28;;;;;;;23.31;69.27;100924.19;5016099;28;102240;-73
2022/08/10 10:22:04;;;;;;;578.42;537.00;;;;;;;23.30;69.07;100920.63;5006743;28;103882;-72
2022/08/10 10:24:40;;;;;;;594.85;552.65;;;;;;;23.29;69.51;100916.22;5004893;28;102286;-72
2022/08/10 10:27:20;;;;;;;598.55;555.92;;;;;;;23.27;69.56;100915.78;5010791;28;102124;-72
2022/08/10 10:29:53;;;;;;;594.30;552.20;;;;;;;23.30;69.19;100917.00;5015521;28;102159;-72
2022/08/10 10:32:26;;;;;;;622.63;578.72;;;;;;;23.27;69.31;100911.03;5010947;28;104076;-73
2022/08/10 10:35:01;;;;;;;618.83;575.10;;;;;;;23.29;69.16;100915.41;5014922;28;102262;-72
2022/08/10 10:37:30;;;;;;;609.65;566.10;;;;;;;23.30;69.18;100919.78;5001112;28;102595;-73
2022/08/10 10:39:58;;;;;;;611.05;567.50;;;;;;;23.27;69.26;100921.31;5002378;28;102429;-72
2022/08/10 10:42:34;;;;;;;591.22;549.13;;;;;;;23.29;69.18;100918.97;5014112;28;103998;-71
2022/08/10 10:45:13;;;;;;;600.45;557.30;;;;;;;23.30;69.09;100908.69;5014125;28;102408;-72
2022/08/10 10:47:58;;;;;;;607.88;565.00;;;;;;;23.30;69.09;100914.22;5005384;28;102140;-73
2022/08/10 10:50:33;;;;;;;604.00;560.78;;;;;;;23.29;69.16;100907.88;5018139;28;102514;-72
2022/08/10 10:53:10;;;;;;;593.60;551.25;;;;;;;23.30;69.21;100908.69;5014555;28;103921;-71
2022/08/10 10:55:44;;;;;;;585.42;543.42;;;;;;;23.27;69.24;100905.47;5007941;28;102197;-72
2022/08/10 10:58:22;;;;;;;596.80;554.42;;;;;;;23.31;69.26;100911.13;5014740;28;102415;-72
2022/08/10 11:00:57;;;;;;;580.95;539.70;;;;;;;23.32;69.12;100906.38;5008856;28;102162;-73
2022/08/10 11:03:37;;;;;;;596.40;553.92;;;;;;;23.32;69.14;100909.94;5001678;28;104094;-72
2022/08/10 11:06:17;;;;;;;592.92;550.47;;;;;;;23.34;69.09;100904.88;5002003;28;102428;-72
2022/08/10 11:08:49;;;;;;;568.95;528.17;;;;;;;23.33;69.01;100907.97;5015486;28;103066;-72